createdAt,value
2018-07-31T00:02:27.486Z,62.30
2018-07-31T00:04:56.131Z,61.90
2018-07-31T00:07:24.834Z,62.40
2018-07-31T00:14:50.445Z,63.80
2018-07-31T00:17:19.098Z,63.20
2018-07-31T00:19:48.399Z,62.30
2018-07-31T00:22:17.079Z,61.60
2018-07-31T00:27:14.430Z,61.30
2018-07-31T00:29:43.100Z,61.00
2018-07-31T00:32:11.748Z,61.70
2018-07-31T00:34:40.373Z,61.70
2018-07-31T00:37:09.048Z,61.30
2018-07-31T00:39:37.747Z,61.20
2018-07-31T00:42:06.443Z,62.30
2018-07-31T00:44:35.140Z,61.90
2018-07-31T00:47:03.833Z,61.70
2018-07-31T00:49:32.412Z,62.00
2018-07-31T00:52:01.302Z,61.90
2018-07-31T00:54:29.972Z,61.50
2018-07-31T00:56:58.829Z,62.40
2018-07-31T01:01:55.931Z,63.10
2018-07-31T01:04:24.683Z,62.00
2018-07-31T01:06:53.238Z,62.30
2018-07-31T01:09:22.391Z,62.80
2018-07-31T01:14:19.609Z,63.10
2018-07-31T01:16:48.340Z,63.20
2018-07-31T01:19:17.158Z,63.80
2018-07-31T01:21:45.914Z,63.00
2018-07-31T01:24:14.699Z,63.10
2018-07-31T01:29:12.938Z,63.20
2018-07-31T01:31:41.759Z,63.60
2018-07-31T01:34:10.456Z,64.10
2018-07-31T01:36:39.198Z,63.40
2018-07-31T01:39:11.396Z,63.40
2018-07-31T01:46:37.646Z,64.30
2018-07-31T01:49:06.364Z,64.10
2018-07-31T01:51:35.687Z,64.30
2018-07-31T01:54:04.409Z,64.20
2018-07-31T01:56:33.241Z,64.30
2018-07-31T02:01:31.287Z,64.80
2018-07-31T02:03:59.904Z,64.50
2018-07-31T02:06:29.133Z,64.00
2018-07-31T02:08:57.889Z,63.60
2018-07-31T02:11:26.667Z,63.90
2018-07-31T02:13:55.437Z,63.50
2018-07-31T02:16:24.453Z,63.10
2018-07-31T02:18:53.205Z,63.10
2018-07-31T02:21:22.063Z,62.80
2018-07-31T02:23:50.788Z,63.20
2018-07-31T02:26:19.012Z,63.70
2018-07-31T02:28:47.614Z,62.90
2018-07-31T02:31:16.236Z,63.00
2018-07-31T02:36:13.541Z,62.90
2018-07-31T02:38:42.275Z,63.10
2018-07-31T02:43:39.553Z,62.80
2018-07-31T02:46:08.165Z,62.90
2018-07-31T02:48:36.990Z,62.70
2018-07-31T02:51:05.926Z,62.30
2018-07-31T02:53:34.321Z,62.60
2018-07-31T02:56:03.050Z,62.70
2018-07-31T02:58:31.795Z,62.10
2018-07-31T03:01:00.602Z,62.50
2018-07-31T03:05:58.427Z,62.60
2018-07-31T03:08:26.777Z,62.10
2018-07-31T03:10:55.540Z,61.60
2018-07-31T03:13:25.949Z,61.80
2018-07-31T03:15:58.134Z,61.50
2018-07-31T03:18:27.720Z,61.70
2018-07-31T03:20:58.329Z,61.50
2018-07-31T03:23:28.544Z,61.90
2018-07-31T03:28:28.508Z,62.40
2018-07-31T03:30:59.191Z,62.00
2018-07-31T03:33:30.467Z,61.30
2018-07-31T03:36:00.969Z,61.80
2018-07-31T03:43:30.629Z,62.00
2018-07-31T03:46:01.604Z,61.90
2018-07-31T03:51:06.456Z,62.40
2018-07-31T03:56:05.905Z,63.10
2018-07-31T03:58:38.377Z,62.50
2018-07-31T04:01:13.508Z,63.40
2018-07-31T04:03:46.990Z,62.90
2018-07-31T04:06:17.930Z,63.60
2018-07-31T04:13:53.566Z,63.70
2018-07-31T04:16:23.303Z,63.70
2018-07-31T04:18:53.796Z,63.00
2018-07-31T04:21:24.283Z,63.20
2018-07-31T04:23:53.318Z,63.50
2018-07-31T04:26:24.150Z,63.50
2018-07-31T04:28:55.375Z,64.00
2018-07-31T04:31:26.730Z,64.30
2018-07-31T04:33:59.138Z,63.90
2018-07-31T04:46:14.684Z,64.50
2018-07-31T04:48:47.427Z,67.00
2018-07-31T04:51:18.640Z,66.80
2018-07-31T04:53:48.132Z,66.90
2018-07-31T04:56:25.807Z,65.90
2018-07-31T04:58:57.873Z,65.70
2018-07-31T05:01:29.731Z,64.50
2018-07-31T05:13:46.647Z,64.80
2018-07-31T05:16:17.162Z,66.80
2018-07-31T05:18:48.780Z,66.30
2018-07-31T05:21:19.034Z,65.60
2018-07-31T05:23:49.136Z,64.30
2018-07-31T05:26:22.006Z,63.00
2018-07-31T05:28:54.411Z,63.20
2018-07-31T05:31:25.612Z,62.00
2018-07-31T05:33:58.843Z,62.20
2018-07-31T05:36:31.966Z,61.70
2018-07-31T05:39:03.824Z,61.20
2018-07-31T05:41:36.142Z,61.20
2018-07-31T05:46:37.042Z,61.30
2018-07-31T05:49:07.193Z,60.40
2018-07-31T05:51:38.213Z,60.50
2018-07-31T05:54:08.944Z,59.70
2018-07-31T05:56:42.031Z,59.20
2018-07-31T05:59:12.928Z,58.80
2018-07-31T06:01:43.517Z,58.40
2018-07-31T06:04:17.689Z,57.80
2018-07-31T06:06:53.177Z,57.00
2018-07-31T06:09:25.369Z,56.10
2018-07-31T06:14:29.649Z,55.50
2018-07-31T06:17:03.956Z,55.20
2018-07-31T06:19:35.992Z,55.50
2018-07-31T06:22:06.771Z,54.90
2018-07-31T06:24:38.799Z,55.20
2018-07-31T06:29:39.648Z,54.10
2018-07-31T06:32:16.460Z,53.80
2018-07-31T06:34:46.858Z,53.80
2018-07-31T06:37:20.033Z,53.90
2018-07-31T06:39:49.450Z,53.50
2018-07-31T06:42:20.664Z,53.10
2018-07-31T06:44:54.722Z,53.40
2018-07-31T06:50:00.614Z,51.90
2018-07-31T06:52:30.538Z,52.10
2018-07-31T06:55:06.371Z,52.00
2018-07-31T07:00:11.633Z,53.40
2018-07-31T07:02:41.893Z,53.00
2018-07-31T07:05:12.377Z,53.00
2018-07-31T07:10:14.396Z,51.10
2018-07-31T07:12:45.990Z,49.90
2018-07-31T07:15:27.329Z,49.80
2018-07-31T07:18:01.097Z,49.10
2018-07-31T07:20:30.966Z,49.90
2018-07-31T07:23:05.977Z,49.50
2018-07-31T07:25:39.357Z,49.10
2018-07-31T07:28:12.118Z,50.00
2018-07-31T07:30:41.957Z,49.30
2018-07-31T07:33:13.306Z,48.70
2018-07-31T07:35:42.441Z,48.60
2018-07-31T07:38:12.049Z,48.60
2018-07-31T07:40:42.607Z,48.10
2018-07-31T07:43:12.441Z,49.80
2018-07-31T07:45:42.143Z,50.10
2018-07-31T07:48:14.376Z,50.60
2018-07-31T07:50:45.029Z,49.30
2018-07-31T07:53:15.891Z,49.80
2018-07-31T07:55:48.727Z,49.80
2018-07-31T07:58:19.520Z,47.10
2018-07-31T08:00:50.171Z,46.10
2018-07-31T08:03:20.050Z,44.80
2018-07-31T08:05:50.225Z,43.10
2018-07-31T08:08:24.510Z,43.10
2018-07-31T08:13:34.556Z,41.80
2018-07-31T08:16:06.173Z,40.70
2018-07-31T08:23:39.289Z,35.70
2018-07-31T08:26:09.202Z,32.90
2018-07-31T08:31:20.612Z,34.10
2018-07-31T08:33:53.233Z,36.20
2018-07-31T08:36:23.567Z,35.60
2018-07-31T08:38:58.081Z,33.30
2018-07-31T08:41:28.833Z,32.80
2018-07-31T08:44:00.540Z,32.70
2018-07-31T08:46:32.239Z,33.00
2018-07-31T08:49:04.190Z,31.50
2018-07-31T08:51:35.282Z,31.00
2018-07-31T08:54:07.304Z,30.00
2018-07-31T08:56:38.652Z,30.90
2018-07-31T08:59:08.918Z,31.50
2018-07-31T09:01:40.540Z,29.50
2018-07-31T09:04:16.365Z,29.30
2018-07-31T09:09:19.960Z,29.00
2018-07-31T09:11:49.680Z,28.00
2018-07-31T09:14:18.903Z,28.40
2018-07-31T09:19:23.376Z,28.80
2018-07-31T09:21:56.312Z,29.10
2018-07-31T09:24:26.912Z,29.30
2018-07-31T09:26:59.123Z,28.60
2018-07-31T09:29:31.373Z,26.70
2018-07-31T09:32:03.743Z,26.40
2018-07-31T09:34:37.745Z,26.30
2018-07-31T09:37:10.029Z,26.80
2018-07-31T09:39:48.102Z,26.80
2018-07-31T09:42:17.866Z,26.80
2018-07-31T09:44:49.210Z,27.00
2018-07-31T09:47:20.603Z,26.80
2018-07-31T09:52:23.699Z,26.80
2018-07-31T09:57:24.155Z,26.70
2018-07-31T09:59:53.064Z,27.30
2018-07-31T10:02:22.708Z,26.60
2018-07-31T10:04:53.681Z,26.00
2018-07-31T10:09:59.631Z,26.50
2018-07-31T10:12:31.950Z,26.90
2018-07-31T10:17:33.393Z,28.30
2018-07-31T10:22:33.292Z,29.40
2018-07-31T10:25:03.666Z,29.90
2018-07-31T10:27:34.440Z,29.60
2018-07-31T10:30:06.508Z,30.30
2018-07-31T10:32:36.396Z,31.80
2018-07-31T10:35:08.206Z,32.60
2018-07-31T10:47:23.482Z,31.70
2018-07-31T10:49:54.594Z,32.30
2018-07-31T10:52:26.612Z,31.30
2018-07-31T10:54:58.870Z,30.30
2018-07-31T10:57:28.064Z,29.40
2018-07-31T11:00:00.019Z,28.40
2018-07-31T11:02:30.126Z,27.70
2018-07-31T11:04:59.118Z,29.50
2018-07-31T11:07:32.560Z,32.10
2018-07-31T11:10:03.774Z,33.50
2018-07-31T11:12:33.682Z,34.00
2018-07-31T11:15:04.055Z,34.40
2018-07-31T11:17:36.170Z,34.30
2018-07-31T11:20:06.567Z,34.40
2018-07-31T11:22:36.001Z,33.60
2018-07-31T11:25:06.709Z,34.00
2018-07-31T11:27:40.377Z,34.60
2018-07-31T11:30:09.790Z,33.90
2018-07-31T11:32:41.408Z,33.90
2018-07-31T11:35:15.140Z,34.70
2018-07-31T11:37:46.204Z,35.80
2018-07-31T11:40:17.082Z,35.10
2018-07-31T11:42:48.874Z,34.10
2018-07-31T11:45:18.952Z,33.90
2018-07-31T11:47:53.653Z,33.10
2018-07-31T11:50:24.678Z,34.30
2018-07-31T11:52:59.905Z,34.20
2018-07-31T11:55:31.662Z,34.50
2018-07-31T11:58:07.379Z,34.60
2018-07-31T12:00:39.182Z,35.80
2018-07-31T12:03:11.624Z,34.40
2018-07-31T12:05:42.196Z,33.80
2018-07-31T12:08:11.844Z,33.10
2018-07-31T12:13:17.080Z,32.50
2018-07-31T12:15:49.636Z,33.40
2018-07-31T12:18:19.427Z,34.60
2018-07-31T12:20:51.982Z,34.40
2018-07-31T12:23:22.531Z,34.20
2018-07-31T12:25:53.762Z,33.80
2018-07-31T12:28:25.605Z,33.80
2018-07-31T12:30:55.080Z,34.00
2018-07-31T12:33:26.786Z,34.50
2018-07-31T12:35:58.112Z,33.50
2018-07-31T12:38:28.745Z,32.60
2018-07-31T12:41:03.907Z,32.80
2018-07-31T12:43:34.444Z,34.20
2018-07-31T12:46:07.902Z,33.60
2018-07-31T12:48:37.393Z,33.60
2018-07-31T12:51:07.113Z,32.90
2018-07-31T12:53:38.333Z,33.30
2018-07-31T12:56:07.726Z,31.80
2018-07-31T12:58:46.144Z,32.50
2018-07-31T13:01:21.534Z,32.80
2018-07-31T13:03:52.751Z,33.10
2018-07-31T13:06:22.931Z,33.40
2018-07-31T13:08:51.913Z,32.30
2018-07-31T13:11:26.104Z,31.20
2018-07-31T13:13:55.825Z,31.00
2018-07-31T13:16:25.780Z,30.60
2018-07-31T13:18:58.008Z,30.90
2018-07-31T13:21:27.553Z,31.20
2018-07-31T13:23:59.071Z,30.20
2018-07-31T13:26:34.032Z,29.80
2018-07-31T13:29:04.484Z,29.70
2018-07-31T13:31:34.664Z,30.60
2018-07-31T13:34:04.685Z,29.30
2018-07-31T13:36:37.413Z,28.70
2018-07-31T13:39:10.938Z,28.90
2018-07-31T13:41:40.751Z,29.40
2018-07-31T13:53:56.813Z,30.10
2018-07-31T13:56:29.348Z,28.30
2018-07-31T13:59:01.928Z,27.80
2018-07-31T14:01:32.356Z,28.20
2018-07-31T14:04:02.063Z,27.80
2018-07-31T14:06:33.041Z,27.70
2018-07-31T14:14:03.356Z,28.90
2018-07-31T14:16:37.342Z,29.30
2018-07-31T14:19:08.270Z,28.40
2018-07-31T14:21:38.684Z,29.50
2018-07-31T14:24:08.302Z,28.80
2018-07-31T14:29:08.345Z,29.20
2018-07-31T14:31:38.545Z,29.80
2018-07-31T14:34:09.521Z,29.30
2018-07-31T14:36:41.917Z,28.70
2018-07-31T14:39:20.184Z,28.50
2018-07-31T14:41:51.563Z,27.80
2018-07-31T14:44:21.416Z,27.70
2018-07-31T14:49:24.669Z,28.00
2018-07-31T14:51:54.819Z,27.50
2018-07-31T14:56:57.084Z,27.20
2018-07-31T14:59:28.993Z,26.40
2018-07-31T15:01:59.941Z,26.60
2018-07-31T15:04:34.422Z,26.80
2018-07-31T15:07:06.285Z,27.10
2018-07-31T15:09:38.448Z,27.80
2018-07-31T15:12:08.878Z,27.40
2018-07-31T15:14:41.884Z,27.10
2018-07-31T15:17:13.641Z,27.50
2018-07-31T15:19:45.277Z,27.30
2018-07-31T15:22:17.416Z,26.60
2018-07-31T15:24:49.110Z,27.00
2018-07-31T15:27:20.356Z,27.30
2018-07-31T15:29:51.252Z,27.60
2018-07-31T15:32:23.876Z,27.60
2018-07-31T15:34:53.008Z,27.30
2018-07-31T15:37:22.898Z,27.10
2018-07-31T15:39:52.592Z,27.60
2018-07-31T15:42:22.987Z,27.20
2018-07-31T15:44:52.718Z,26.70
2018-07-31T15:47:22.716Z,26.80
2018-07-31T15:49:55.907Z,26.50
2018-07-31T15:52:27.589Z,27.20
2018-07-31T15:55:04.032Z,26.90
2018-07-31T15:57:35.024Z,27.00
2018-07-31T16:00:06.531Z,27.30
2018-07-31T16:02:36.028Z,27.80
2018-07-31T16:05:06.724Z,27.50
2018-07-31T16:07:35.655Z,26.20
2018-07-31T16:10:07.178Z,27.10
2018-07-31T16:12:37.788Z,27.70
2018-07-31T16:17:36.656Z,27.90
2018-07-31T16:20:06.262Z,28.30
2018-07-31T16:22:34.963Z,28.40
2018-07-31T16:25:03.739Z,28.70
2018-07-31T16:27:36.059Z,28.40
2018-07-31T16:32:35.394Z,28.50
2018-07-31T16:35:05.408Z,28.70
2018-07-31T16:37:35.253Z,29.10
2018-07-31T16:40:04.885Z,28.50
2018-07-31T16:42:37.628Z,28.90
2018-07-31T16:45:07.628Z,29.60
2018-07-31T16:47:37.873Z,29.60
2018-07-31T16:50:07.913Z,30.00
2018-07-31T16:52:36.742Z,29.90
2018-07-31T16:55:05.485Z,30.50
2018-07-31T16:57:35.433Z,30.80
2018-07-31T17:00:05.187Z,30.10
2018-07-31T17:02:34.599Z,30.40
2018-07-31T17:05:03.861Z,30.50
2018-07-31T17:07:33.834Z,30.90
2018-07-31T17:15:00.583Z,31.50
2018-07-31T17:17:30.408Z,31.30
2018-07-31T17:20:01.743Z,30.70
2018-07-31T17:22:31.310Z,31.50
2018-07-31T17:25:00.607Z,31.80
2018-07-31T17:27:31.155Z,32.00
2018-07-31T17:29:59.963Z,31.50
2018-07-31T17:32:28.841Z,31.20
2018-07-31T17:34:57.994Z,31.60
2018-07-31T17:37:27.671Z,31.50
2018-07-31T17:39:57.272Z,31.70
2018-07-31T17:42:25.783Z,31.40
2018-07-31T17:44:54.707Z,32.80
2018-07-31T17:49:52.990Z,33.80
2018-07-31T17:52:22.314Z,32.90
2018-07-31T17:54:51.690Z,33.00
2018-07-31T17:59:51.416Z,34.10
2018-07-31T18:02:20.189Z,33.80
2018-07-31T18:04:48.831Z,33.60
2018-07-31T18:07:17.502Z,33.70
2018-07-31T18:09:45.968Z,33.90
2018-07-31T18:12:14.538Z,35.20
2018-07-31T18:14:44.153Z,34.30
2018-07-31T18:17:13.024Z,34.70
2018-07-31T18:19:41.891Z,35.00
2018-07-31T18:22:10.699Z,34.40
2018-07-31T18:24:45.787Z,34.40
2018-07-31T18:27:14.558Z,34.50
2018-07-31T18:32:44.058Z,33.90
2018-07-31T18:35:14.048Z,34.10
2018-07-31T18:37:42.575Z,34.10
2018-07-31T18:40:11.941Z,34.10
2018-07-31T18:42:40.863Z,34.20
2018-07-31T18:45:11.127Z,33.40
2018-07-31T18:47:39.732Z,32.90
2018-07-31T18:50:08.360Z,32.80
2018-07-31T18:52:37.612Z,32.30
2018-07-31T18:55:07.260Z,32.10
2018-07-31T18:57:35.756Z,31.90
2018-07-31T19:00:05.245Z,32.80
2018-07-31T19:02:34.033Z,33.20
2018-07-31T19:05:03.338Z,33.00
2018-07-31T19:07:31.891Z,33.80
2018-07-31T19:10:00.445Z,33.20
2018-07-31T19:12:29.145Z,32.50
2018-07-31T19:14:59.464Z,32.70
2018-07-31T19:17:27.986Z,33.00
2018-07-31T19:19:56.582Z,33.70
2018-07-31T19:22:25.520Z,33.50
2018-07-31T19:24:54.454Z,33.20
2018-07-31T19:27:23.137Z,34.00
2018-07-31T19:29:51.243Z,34.30
2018-07-31T19:32:20.564Z,34.40
2018-07-31T19:34:49.240Z,34.30
2018-07-31T19:37:17.861Z,35.00
2018-07-31T19:39:47.319Z,35.50
2018-07-31T19:42:16.669Z,36.10
2018-07-31T19:44:46.366Z,36.00
2018-07-31T19:47:15.894Z,36.10
2018-07-31T19:49:44.650Z,36.90
2018-07-31T19:52:13.340Z,36.60
2018-07-31T19:54:43.062Z,37.80
2018-07-31T19:57:11.699Z,38.00
2018-07-31T19:59:40.480Z,38.40
2018-07-31T20:04:40.823Z,38.70
2018-07-31T20:09:38.228Z,39.20
2018-07-31T20:12:07.474Z,38.90
2018-07-31T20:17:04.829Z,40.00
2018-07-31T20:19:33.604Z,40.20
2018-07-31T20:22:03.030Z,41.40
2018-07-31T20:24:32.930Z,39.70
2018-07-31T20:27:02.540Z,39.90
2018-07-31T20:29:31.303Z,40.20
2018-07-31T20:32:01.255Z,41.10
2018-07-31T20:34:29.960Z,41.10
2018-07-31T20:36:59.793Z,40.70
2018-07-31T20:39:28.594Z,40.70
2018-07-31T20:41:57.385Z,41.10
2018-07-31T20:44:25.955Z,40.50
2018-07-31T20:46:54.964Z,41.00
2018-07-31T20:49:23.782Z,41.10
2018-07-31T20:51:52.487Z,41.50
2018-07-31T20:54:21.254Z,41.50
2018-07-31T20:56:50.403Z,41.70
2018-07-31T20:59:20.186Z,41.80
2018-07-31T21:01:48.987Z,42.10
2018-07-31T21:04:17.641Z,43.30
2018-07-31T21:06:46.525Z,42.50
2018-07-31T21:09:19.113Z,44.10
2018-07-31T21:11:50.357Z,44.10
2018-07-31T21:14:19.343Z,44.80
2018-07-31T21:16:48.049Z,44.90
2018-07-31T21:19:16.685Z,45.70
2018-07-31T21:24:14.260Z,46.70
2018-07-31T21:26:44.524Z,46.60
2018-07-31T21:29:13.300Z,46.80
2018-07-31T21:31:42.229Z,46.30
2018-07-31T21:34:11.041Z,46.70
2018-07-31T21:36:40.957Z,46.60
2018-07-31T21:39:11.647Z,47.10
2018-07-31T21:41:40.918Z,47.30
2018-07-31T21:44:10.201Z,48.20
2018-07-31T21:46:38.990Z,48.40
2018-07-31T21:49:07.894Z,48.00
2018-07-31T21:51:37.375Z,49.00
2018-07-31T21:54:06.729Z,49.90
2018-07-31T21:56:35.492Z,50.30
2018-07-31T21:59:06.124Z,50.10
2018-07-31T22:01:35.118Z,50.70
2018-07-31T22:04:03.888Z,50.70
2018-07-31T22:06:32.884Z,51.90
2018-07-31T22:09:01.622Z,51.30
2018-07-31T22:11:30.364Z,51.20
2018-07-31T22:14:00.127Z,51.90
2018-07-31T22:16:29.758Z,51.70
2018-07-31T22:21:27.241Z,52.00
2018-07-31T22:23:56.253Z,50.90
2018-07-31T22:26:25.114Z,50.90
2018-07-31T22:28:54.705Z,50.70
2018-07-31T22:31:23.539Z,51.20
2018-07-31T22:33:52.436Z,52.30
2018-07-31T22:36:21.185Z,52.00
2018-07-31T22:38:50.122Z,52.40
2018-07-31T22:43:49.892Z,51.90
2018-07-31T22:46:19.121Z,51.70
2018-07-31T22:48:49.537Z,51.50
2018-07-31T22:51:19.998Z,53.50
2018-07-31T22:56:18.243Z,54.20
2018-07-31T22:58:47.346Z,53.60
2018-07-31T23:01:17.550Z,53.90
2018-07-31T23:03:48.325Z,53.70
2018-07-31T23:06:17.315Z,54.40
2018-07-31T23:08:46.927Z,54.90
2018-07-31T23:11:15.842Z,54.70
2018-07-31T23:13:44.750Z,54.70
2018-07-31T23:16:13.745Z,54.10
2018-07-31T23:18:42.627Z,53.20
2018-07-31T23:21:12.171Z,54.30
2018-07-31T23:23:42.036Z,54.50
2018-07-31T23:26:11.109Z,53.80
2018-07-31T23:28:40.142Z,54.50
2018-07-31T23:31:09.397Z,54.70
2018-07-31T23:36:07.053Z,54.60
2018-07-31T23:38:35.877Z,54.00
2018-07-31T23:43:37.301Z,53.70
2018-07-31T23:46:06.343Z,53.80
2018-07-31T23:48:35.275Z,53.60
2018-07-31T23:51:04.246Z,54.30
2018-07-31T23:53:33.540Z,54.00
2018-07-31T23:58:31.568Z,54.40
